sensor_id;sensor_type;location;lat;lon;timestamp;P1;durP1;ratioP1;P2;durP2;ratioP2
75866;SDS011;64513;56.258;43.980;2023-04-24T00:01:23;5.40;;;1.60;;
75866;SDS011;64513;56.258;43.980;2023-04-24T00:03:47;5.20;;;1.70;;
75866;SDS011;64513;56.258;43.980;2023-04-24T00:06:11;7.30;;;1.72;;
75866;SDS011;64513;56.258;43.980;2023-04-24T00:08:37;4.97;;;1.90;;
75866;SDS011;64513;56.258;43.980;2023-04-24T00:11:01;4.83;;;1.80;;
75866;SDS011;64513;56.258;43.980;2023-04-24T00:13:25;4.40;;;1.87;;
75866;SDS011;64513;56.258;43.980;2023-04-24T00:15:50;4.33;;;2.10;;
75866;SDS011;64513;56.258;43.980;2023-04-24T00:18:14;4.03;;;1.80;;
75866;SDS011;64513;56.258;43.980;2023-04-24T00:20:41;6.05;;;1.82;;
75866;SDS011;64513;56.258;43.980;2023-04-24T00:23:04;4.33;;;2.02;;
75866;SDS011;64513;56.258;43.980;2023-04-24T00:25:28;5.13;;;2.10;;
75866;SDS011;64513;56.258;43.980;2023-04-24T00:27:52;5.70;;;1.77;;
75866;SDS011;64513;56.258;43.980;2023-04-24T00:30:17;5.08;;;2.02;;
75866;SDS011;64513;56.258;43.980;2023-04-24T00:32:41;6.78;;;2.08;;
75866;SDS011;64513;56.258;43.980;2023-04-24T00:35:05;4.03;;;1.87;;
75866;SDS011;64513;56.258;43.980;2023-04-24T00:37:30;6.17;;;1.97;;
75866;SDS011;64513;56.258;43.980;2023-04-24T00:39:55;8.00;;;2.30;;
75866;SDS011;64513;56.258;43.980;2023-04-24T00:42:19;8.23;;;2.33;;
75866;SDS011;64513;56.258;43.980;2023-04-24T00:44:44;9.05;;;2.30;;
75866;SDS011;64513;56.258;43.980;2023-04-24T00:47:08;6.37;;;2.20;;
75866;SDS011;64513;56.258;43.980;2023-04-24T00:49:33;6.00;;;2.37;;
75866;SDS011;64513;56.258;43.980;2023-04-24T00:51:58;4.55;;;2.30;;
75866;SDS011;64513;56.258;43.980;2023-04-24T00:54:22;5.35;;;2.22;;
75866;SDS011;64513;56.258;43.980;2023-04-24T00:56:46;5.75;;;2.02;;
75866;SDS011;64513;56.258;43.980;2023-04-24T00:59:12;5.15;;;2.17;;
75866;SDS011;64513;56.258;43.980;2023-04-24T01:01:38;5.33;;;2.20;;
75866;SDS011;64513;56.258;43.980;2023-04-24T01:04:03;5.30;;;2.20;;
75866;SDS011;64513;56.258;43.980;2023-04-24T01:06:28;5.03;;;2.33;;
75866;SDS011;64513;56.258;43.980;2023-04-24T01:08:53;7.25;;;2.45;;
75866;SDS011;64513;56.258;43.980;2023-04-24T01:11:17;5.12;;;1.82;;
75866;SDS011;64513;56.258;43.980;2023-04-24T01:13:42;6.23;;;2.00;;
75866;SDS011;64513;56.258;43.980;2023-04-24T01:16:06;3.52;;;1.98;;
75866;SDS011;64513;56.258;43.980;2023-04-24T01:18:30;4.75;;;2.00;;
75866;SDS011;64513;56.258;43.980;2023-04-24T01:23:39;4.83;;;1.90;;
75866;SDS011;64513;56.258;43.980;2023-04-24T01:26:04;9.87;;;2.23;;
75866;SDS011;64513;56.258;43.980;2023-04-24T01:28:28;7.58;;;2.33;;
75866;SDS011;64513;56.258;43.980;2023-04-24T01:30:53;5.90;;;2.45;;
75866;SDS011;64513;56.258;43.980;2023-04-24T01:33:17;6.00;;;2.17;;
75866;SDS011;64513;56.258;43.980;2023-04-24T01:35:43;5.10;;;2.25;;
75866;SDS011;64513;56.258;43.980;2023-04-24T01:38:10;4.40;;;2.20;;
75866;SDS011;64513;56.258;43.980;2023-04-24T01:40:35;6.40;;;2.22;;
75866;SDS011;64513;56.258;43.980;2023-04-24T01:42:59;6.10;;;2.30;;
75866;SDS011;64513;56.258;43.980;2023-04-24T01:45:23;9.48;;;2.50;;
75866;SDS011;64513;56.258;43.980;2023-04-24T01:47:48;6.65;;;2.33;;
75866;SDS011;64513;56.258;43.980;2023-04-24T01:50:13;6.00;;;2.60;;
75866;SDS011;64513;56.258;43.980;2023-04-24T01:52:38;4.97;;;2.25;;
75866;SDS011;64513;56.258;43.980;2023-04-24T01:55:03;5.55;;;2.47;;
75866;SDS011;64513;56.258;43.980;2023-04-24T01:57:28;5.33;;;2.22;;
75866;SDS011;64513;56.258;43.980;2023-04-24T01:59:53;5.37;;;2.20;;
75866;SDS011;64513;56.258;43.980;2023-04-24T02:02:17;5.40;;;2.37;;
75866;SDS011;64513;56.258;43.980;2023-04-24T02:04:43;5.75;;;2.20;;
75866;SDS011;64513;56.258;43.980;2023-04-24T02:07:07;5.58;;;2.45;;
75866;SDS011;64513;56.258;43.980;2023-04-24T02:09:32;7.12;;;2.90;;
75866;SDS011;64513;56.258;43.980;2023-04-24T02:11:56;8.60;;;2.30;;
75866;SDS011;64513;56.258;43.980;2023-04-24T02:14:21;4.67;;;2.30;;
75866;SDS011;64513;56.258;43.980;2023-04-24T02:16:45;7.37;;;2.52;;
75866;SDS011;64513;56.258;43.980;2023-04-24T02:19:10;6.22;;;2.02;;
75866;SDS011;64513;56.258;43.980;2023-04-24T02:21:34;5.45;;;2.08;;
75866;SDS011;64513;56.258;43.980;2023-04-24T02:23:59;12.75;;;2.92;;
75866;SDS011;64513;56.258;43.980;2023-04-24T02:26:23;10.37;;;2.33;;
75866;SDS011;64513;56.258;43.980;2023-04-24T02:28:47;9.70;;;2.40;;
75866;SDS011;64513;56.258;43.980;2023-04-24T02:31:12;6.12;;;2.40;;
75866;SDS011;64513;56.258;43.980;2023-04-24T02:33:36;9.68;;;2.42;;
75866;SDS011;64513;56.258;43.980;2023-04-24T02:36:00;8.88;;;3.08;;
75866;SDS011;64513;56.258;43.980;2023-04-24T02:38:24;8.20;;;2.43;;
75866;SDS011;64513;56.258;43.980;2023-04-24T02:40:49;9.03;;;2.40;;
75866;SDS011;64513;56.258;43.980;2023-04-24T02:43:13;11.05;;;2.60;;
75866;SDS011;64513;56.258;43.980;2023-04-24T02:45:37;7.58;;;2.42;;
75866;SDS011;64513;56.258;43.980;2023-04-24T02:48:01;5.03;;;2.50;;
75866;SDS011;64513;56.258;43.980;2023-04-24T02:50:25;7.83;;;2.70;;
75866;SDS011;64513;56.258;43.980;2023-04-24T02:52:50;8.93;;;2.62;;
75866;SDS011;64513;56.258;43.980;2023-04-24T02:55:14;9.03;;;2.47;;
75866;SDS011;64513;56.258;43.980;2023-04-24T02:57:38;10.85;;;3.20;;
75866;SDS011;64513;56.258;43.980;2023-04-24T03:00:02;6.42;;;2.45;;
75866;SDS011;64513;56.258;43.980;2023-04-24T03:02:28;11.83;;;3.00;;
75866;SDS011;64513;56.258;43.980;2023-04-24T03:04:52;7.37;;;2.67;;
75866;SDS011;64513;56.258;43.980;2023-04-24T03:07:18;11.33;;;3.00;;
75866;SDS011;64513;56.258;43.980;2023-04-24T03:09:42;7.58;;;2.70;;
75866;SDS011;64513;56.258;43.980;2023-04-24T03:12:06;9.08;;;2.85;;
75866;SDS011;64513;56.258;43.980;2023-04-24T03:14:30;7.53;;;2.50;;
75866;SDS011;64513;56.258;43.980;2023-04-24T03:16:55;9.65;;;2.80;;
75866;SDS011;64513;56.258;43.980;2023-04-24T03:19:19;6.17;;;2.50;;
75866;SDS011;64513;56.258;43.980;2023-04-24T03:21:43;7.95;;;2.30;;
75866;SDS011;64513;56.258;43.980;2023-04-24T03:24:08;9.83;;;2.87;;
75866;SDS011;64513;56.258;43.980;2023-04-24T03:26:32;8.63;;;3.03;;
75866;SDS011;64513;56.258;43.980;2023-04-24T03:28:58;11.93;;;2.67;;
75866;SDS011;64513;56.258;43.980;2023-04-24T03:31:22;9.48;;;2.85;;
75866;SDS011;64513;56.258;43.980;2023-04-24T03:33:46;8.43;;;3.20;;
75866;SDS011;64513;56.258;43.980;2023-04-24T03:36:11;9.15;;;2.80;;
75866;SDS011;64513;56.258;43.980;2023-04-24T03:38:36;6.70;;;2.65;;
75866;SDS011;64513;56.258;43.980;2023-04-24T03:41:00;7.70;;;2.70;;
75866;SDS011;64513;56.258;43.980;2023-04-24T03:43:24;8.25;;;2.33;;
75866;SDS011;64513;56.258;43.980;2023-04-24T03:45:48;6.35;;;2.55;;
75866;SDS011;64513;56.258;43.980;2023-04-24T03:48:12;14.15;;;3.00;;
75866;SDS011;64513;56.258;43.980;2023-04-24T03:50:36;9.70;;;2.65;;
75866;SDS011;64513;56.258;43.980;2023-04-24T03:53:01;8.80;;;2.83;;
75866;SDS011;64513;56.258;43.980;2023-04-24T03:55:25;9.37;;;2.50;;
75866;SDS011;64513;56.258;43.980;2023-04-24T03:57:49;6.93;;;2.60;;
75866;SDS011;64513;56.258;43.980;2023-04-24T04:00:13;6.35;;;2.60;;
75866;SDS011;64513;56.258;43.980;2023-04-24T04:02:39;4.45;;;2.33;;
75866;SDS011;64513;56.258;43.980;2023-04-24T04:05:03;7.87;;;2.83;;
75866;SDS011;64513;56.258;43.980;2023-04-24T04:07:28;10.05;;;2.90;;
75866;SDS011;64513;56.258;43.980;2023-04-24T04:09:52;7.53;;;2.27;;
75866;SDS011;64513;56.258;43.980;2023-04-24T04:12:17;9.70;;;3.02;;
75866;SDS011;64513;56.258;43.980;2023-04-24T04:14:41;8.45;;;2.70;;
75866;SDS011;64513;56.258;43.980;2023-04-24T04:17:05;14.25;;;2.75;;
75866;SDS011;64513;56.258;43.980;2023-04-24T04:19:29;11.33;;;2.63;;
75866;SDS011;64513;56.258;43.980;2023-04-24T04:21:53;8.70;;;2.83;;
75866;SDS011;64513;56.258;43.980;2023-04-24T04:24:17;6.70;;;3.08;;
75866;SDS011;64513;56.258;43.980;2023-04-24T04:26:43;8.33;;;2.87;;
75866;SDS011;64513;56.258;43.980;2023-04-24T04:29:07;5.22;;;2.47;;
75866;SDS011;64513;56.258;43.980;2023-04-24T04:31:32;6.60;;;2.83;;
75866;SDS011;64513;56.258;43.980;2023-04-24T04:33:57;8.63;;;2.95;;
75866;SDS011;64513;56.258;43.980;2023-04-24T04:36:22;13.48;;;2.90;;
75866;SDS011;64513;56.258;43.980;2023-04-24T04:38:46;6.60;;;3.05;;
75866;SDS011;64513;56.258;43.980;2023-04-24T04:41:10;8.28;;;2.62;;
75866;SDS011;64513;56.258;43.980;2023-04-24T04:43:34;5.20;;;2.60;;
75866;SDS011;64513;56.258;43.980;2023-04-24T04:46:00;9.97;;;2.93;;
75866;SDS011;64513;56.258;43.980;2023-04-24T04:48:25;8.88;;;2.80;;
75866;SDS011;64513;56.258;43.980;2023-04-24T04:50:51;10.95;;;2.70;;
75866;SDS011;64513;56.258;43.980;2023-04-24T04:53:15;9.20;;;2.65;;
75866;SDS011;64513;56.258;43.980;2023-04-24T04:55:40;7.90;;;2.72;;
75866;SDS011;64513;56.258;43.980;2023-04-24T04:58:04;8.08;;;2.60;;
75866;SDS011;64513;56.258;43.980;2023-04-24T05:00:28;9.50;;;2.75;;
75866;SDS011;64513;56.258;43.980;2023-04-24T05:02:54;10.63;;;3.42;;
75866;SDS011;64513;56.258;43.980;2023-04-24T05:05:18;7.97;;;3.12;;
75866;SDS011;64513;56.258;43.980;2023-04-24T05:07:43;5.57;;;2.37;;
75866;SDS011;64513;56.258;43.980;2023-04-24T05:10:07;7.70;;;3.40;;
75866;SDS011;64513;56.258;43.980;2023-04-24T05:12:32;8.30;;;3.30;;
75866;SDS011;64513;56.258;43.980;2023-04-24T05:14:56;6.87;;;3.35;;
75866;SDS011;64513;56.258;43.980;2023-04-24T05:17:20;7.45;;;2.70;;
75866;SDS011;64513;56.258;43.980;2023-04-24T05:19:45;15.03;;;3.12;;
75866;SDS011;64513;56.258;43.980;2023-04-24T05:22:09;10.58;;;2.98;;
75866;SDS011;64513;56.258;43.980;2023-04-24T05:24:33;8.50;;;3.00;;
75866;SDS011;64513;56.258;43.980;2023-04-24T05:26:58;10.28;;;2.70;;
75866;SDS011;64513;56.258;43.980;2023-04-24T05:29:22;5.72;;;2.83;;
75866;SDS011;64513;56.258;43.980;2023-04-24T05:31:47;6.67;;;3.17;;
75866;SDS011;64513;56.258;43.980;2023-04-24T05:34:11;9.57;;;3.20;;
75866;SDS011;64513;56.258;43.980;2023-04-24T05:36:37;9.78;;;3.00;;
75866;SDS011;64513;56.258;43.980;2023-04-24T05:39:01;8.10;;;3.02;;
75866;SDS011;64513;56.258;43.980;2023-04-24T05:41:25;8.05;;;3.33;;
75866;SDS011;64513;56.258;43.980;2023-04-24T05:43:50;8.08;;;3.52;;
75866;SDS011;64513;56.258;43.980;2023-04-24T05:46:14;8.15;;;3.35;;
75866;SDS011;64513;56.258;43.980;2023-04-24T05:48:38;7.58;;;3.00;;
75866;SDS011;64513;56.258;43.980;2023-04-24T05:51:02;6.97;;;3.10;;
75866;SDS011;64513;56.258;43.980;2023-04-24T05:53:27;6.35;;;3.50;;
75866;SDS011;64513;56.258;43.980;2023-04-24T05:55:51;7.53;;;3.13;;
75866;SDS011;64513;56.258;43.980;2023-04-24T05:58:15;7.20;;;2.90;;
75866;SDS011;64513;56.258;43.980;2023-04-24T06:00:40;7.30;;;3.47;;
75866;SDS011;64513;56.258;43.980;2023-04-24T06:03:06;7.53;;;3.22;;
75866;SDS011;64513;56.258;43.980;2023-04-24T06:05:30;11.03;;;3.17;;
75866;SDS011;64513;56.258;43.980;2023-04-24T06:07:55;7.33;;;3.20;;
75866;SDS011;64513;56.258;43.980;2023-04-24T06:10:19;7.78;;;3.25;;
75866;SDS011;64513;56.258;43.980;2023-04-24T06:12:43;7.50;;;3.22;;
75866;SDS011;64513;56.258;43.980;2023-04-24T06:15:08;10.68;;;3.95;;
75866;SDS011;64513;56.258;43.980;2023-04-24T06:17:33;8.03;;;3.85;;
75866;SDS011;64513;56.258;43.980;2023-04-24T06:19:57;6.87;;;3.80;;
75866;SDS011;64513;56.258;43.980;2023-04-24T06:22:21;7.20;;;4.23;;
75866;SDS011;64513;56.258;43.980;2023-04-24T06:24:46;14.75;;;3.83;;
75866;SDS011;64513;56.258;43.980;2023-04-24T06:27:10;9.43;;;3.40;;
75866;SDS011;64513;56.258;43.980;2023-04-24T06:29:34;10.08;;;3.80;;
75866;SDS011;64513;56.258;43.980;2023-04-24T06:31:59;6.97;;;3.72;;
75866;SDS011;64513;56.258;43.980;2023-04-24T06:34:23;7.40;;;3.62;;
75866;SDS011;64513;56.258;43.980;2023-04-24T06:36:47;9.25;;;3.80;;
75866;SDS011;64513;56.258;43.980;2023-04-24T06:39:12;8.63;;;3.83;;
75866;SDS011;64513;56.258;43.980;2023-04-24T06:41:36;8.93;;;3.72;;
75866;SDS011;64513;56.258;43.980;2023-04-24T06:44:00;8.20;;;3.60;;
75866;SDS011;64513;56.258;43.980;2023-04-24T06:46:25;7.37;;;3.40;;
75866;SDS011;64513;56.258;43.980;2023-04-24T06:48:49;10.85;;;3.40;;
75866;SDS011;64513;56.258;43.980;2023-04-24T06:51:15;8.65;;;3.45;;
75866;SDS011;64513;56.258;43.980;2023-04-24T06:53:39;9.25;;;3.85;;
75866;SDS011;64513;56.258;43.980;2023-04-24T06:56:03;7.15;;;3.17;;
75866;SDS011;64513;56.258;43.980;2023-04-24T06:58:28;7.75;;;3.05;;
75866;SDS011;64513;56.258;43.980;2023-04-24T07:00:53;6.47;;;3.70;;
75866;SDS011;64513;56.258;43.980;2023-04-24T07:03:18;9.18;;;3.58;;
75866;SDS011;64513;56.258;43.980;2023-04-24T07:05:42;9.43;;;3.58;;
75866;SDS011;64513;56.258;43.980;2023-04-24T07:08:06;10.27;;;3.10;;
75866;SDS011;64513;56.258;43.980;2023-04-24T07:10:32;7.77;;;3.30;;
75866;SDS011;64513;56.258;43.980;2023-04-24T07:12:56;9.70;;;3.52;;
75866;SDS011;64513;56.258;43.980;2023-04-24T07:15:20;10.38;;;3.50;;
75866;SDS011;64513;56.258;43.980;2023-04-24T07:17:45;5.25;;;3.12;;
75866;SDS011;64513;56.258;43.980;2023-04-24T07:20:10;6.37;;;2.95;;
75866;SDS011;64513;56.258;43.980;2023-04-24T07:22:35;7.72;;;3.42;;
75866;SDS011;64513;56.258;43.980;2023-04-24T07:25:01;8.78;;;3.00;;
75866;SDS011;64513;56.258;43.980;2023-04-24T07:27:25;7.37;;;3.33;;
75866;SDS011;64513;56.258;43.980;2023-04-24T07:29:49;8.38;;;3.42;;
75866;SDS011;64513;56.258;43.980;2023-04-24T07:32:14;8.07;;;3.27;;
75866;SDS011;64513;56.258;43.980;2023-04-24T07:34:38;7.57;;;3.33;;
75866;SDS011;64513;56.258;43.980;2023-04-24T07:37:02;8.28;;;3.40;;
75866;SDS011;64513;56.258;43.980;2023-04-24T07:39:26;9.15;;;3.20;;
75866;SDS011;64513;56.258;43.980;2023-04-24T07:41:51;13.05;;;3.35;;
75866;SDS011;64513;56.258;43.980;2023-04-24T07:44:15;8.95;;;3.35;;
75866;SDS011;64513;56.258;43.980;2023-04-24T07:46:39;12.68;;;3.90;;
75866;SDS011;64513;56.258;43.980;2023-04-24T07:49:04;8.65;;;3.58;;
75866;SDS011;64513;56.258;43.980;2023-04-24T07:51:28;11.15;;;3.50;;
75866;SDS011;64513;56.258;43.980;2023-04-24T07:53:54;13.45;;;3.52;;
75866;SDS011;64513;56.258;43.980;2023-04-24T07:56:18;9.00;;;3.50;;
75866;SDS011;64513;56.258;43.980;2023-04-24T07:58:42;10.47;;;3.60;;
75866;SDS011;64513;56.258;43.980;2023-04-24T08:01:07;8.03;;;3.72;;
75866;SDS011;64513;56.258;43.980;2023-04-24T08:03:33;9.50;;;3.83;;
75866;SDS011;64513;56.258;43.980;2023-04-24T08:05:57;9.45;;;4.40;;
75866;SDS011;64513;56.258;43.980;2023-04-24T08:08:21;11.60;;;3.87;;
75866;SDS011;64513;56.258;43.980;2023-04-24T08:10:46;11.15;;;4.12;;
75866;SDS011;64513;56.258;43.980;2023-04-24T08:13:10;16.87;;;4.50;;
75866;SDS011;64513;56.258;43.980;2023-04-24T08:15:35;9.85;;;4.37;;
75866;SDS011;64513;56.258;43.980;2023-04-24T08:17:59;8.08;;;3.87;;
75866;SDS011;64513;56.258;43.980;2023-04-24T08:20:23;7.00;;;3.63;;
75866;SDS011;64513;56.258;43.980;2023-04-24T08:22:48;9.47;;;3.80;;
75866;SDS011;64513;56.258;43.980;2023-04-24T08:25:12;10.53;;;3.70;;
75866;SDS011;64513;56.258;43.980;2023-04-24T08:27:38;7.72;;;3.75;;
75866;SDS011;64513;56.258;43.980;2023-04-24T08:30:03;9.03;;;3.70;;
75866;SDS011;64513;56.258;43.980;2023-04-24T08:32:29;10.55;;;4.33;;
75866;SDS011;64513;56.258;43.980;2023-04-24T08:34:54;8.15;;;3.75;;
75866;SDS011;64513;56.258;43.980;2023-04-24T08:37:19;12.25;;;3.75;;
75866;SDS011;64513;56.258;43.980;2023-04-24T08:39:44;8.68;;;3.65;;
75866;SDS011;64513;56.258;43.980;2023-04-24T08:42:08;11.40;;;4.03;;
75866;SDS011;64513;56.258;43.980;2023-04-24T08:44:34;7.63;;;3.40;;
75866;SDS011;64513;56.258;43.980;2023-04-24T08:47:00;7.13;;;3.70;;
75866;SDS011;64513;56.258;43.980;2023-04-24T08:49:46;5.47;;;3.15;;
75866;SDS011;64513;56.258;43.980;2023-04-24T08:52:11;12.75;;;3.58;;
75866;SDS011;64513;56.258;43.980;2023-04-24T08:54:36;7.90;;;3.10;;
75866;SDS011;64513;56.258;43.980;2023-04-24T08:57:01;9.13;;;3.35;;
75866;SDS011;64513;56.258;43.980;2023-04-24T08:59:26;9.00;;;3.20;;
75866;SDS011;64513;56.258;43.980;2023-04-24T09:01:51;4.92;;;3.05;;
75866;SDS011;64513;56.258;43.980;2023-04-24T09:04:18;6.12;;;2.90;;
75866;SDS011;64513;56.258;43.980;2023-04-24T09:06:47;6.70;;;3.33;;
75866;SDS011;64513;56.258;43.980;2023-04-24T09:09:12;5.50;;;2.93;;
75866;SDS011;64513;56.258;43.980;2023-04-24T09:11:38;8.43;;;3.00;;
75866;SDS011;64513;56.258;43.980;2023-04-24T09:14:03;5.87;;;2.95;;
75866;SDS011;64513;56.258;43.980;2023-04-24T09:16:27;7.05;;;3.05;;
75866;SDS011;64513;56.258;43.980;2023-04-24T09:18:55;8.75;;;2.80;;
75866;SDS011;64513;56.258;43.980;2023-04-24T09:21:20;10.15;;;2.70;;
75866;SDS011;64513;56.258;43.980;2023-04-24T09:23:45;9.40;;;3.02;;
75866;SDS011;64513;56.258;43.980;2023-04-24T09:26:09;6.45;;;3.00;;
75866;SDS011;64513;56.258;43.980;2023-04-24T09:28:36;10.35;;;3.10;;
75866;SDS011;64513;56.258;43.980;2023-04-24T09:36:30;7.03;;;2.80;;
75866;SDS011;64513;56.258;43.980;2023-04-24T09:38:58;5.50;;;2.70;;
75866;SDS011;64513;56.258;43.980;2023-04-24T09:41:25;4.72;;;2.60;;
75866;SDS011;64513;56.258;43.980;2023-04-24T09:43:50;7.65;;;2.60;;
75866;SDS011;64513;56.258;43.980;2023-04-24T09:46:15;9.30;;;2.55;;
75866;SDS011;64513;56.258;43.980;2023-04-24T09:48:42;8.43;;;2.62;;
75866;SDS011;64513;56.258;43.980;2023-04-24T09:51:07;6.22;;;2.80;;
75866;SDS011;64513;56.258;43.980;2023-04-24T09:53:50;6.97;;;2.55;;
75866;SDS011;64513;56.258;43.980;2023-04-24T09:56:16;7.22;;;2.70;;
75866;SDS011;64513;56.258;43.980;2023-04-24T09:58:41;6.90;;;2.47;;
75866;SDS011;64513;56.258;43.980;2023-04-24T10:01:05;5.20;;;2.47;;
75866;SDS011;64513;56.258;43.980;2023-04-24T10:03:30;5.72;;;2.70;;
75866;SDS011;64513;56.258;43.980;2023-04-24T10:05:58;5.60;;;2.50;;
75866;SDS011;64513;56.258;43.980;2023-04-24T10:08:41;5.97;;;2.87;;
75866;SDS011;64513;56.258;43.980;2023-04-24T10:11:06;5.62;;;2.40;;
75866;SDS011;64513;56.258;43.980;2023-04-24T10:13:32;7.83;;;2.80;;
75866;SDS011;64513;56.258;43.980;2023-04-24T10:15:57;12.03;;;2.58;;
75866;SDS011;64513;56.258;43.980;2023-04-24T10:18:23;4.72;;;2.55;;
75866;SDS011;64513;56.258;43.980;2023-04-24T10:20:48;7.10;;;2.58;;
75866;SDS011;64513;56.258;43.980;2023-04-24T10:23:14;6.93;;;2.23;;
75866;SDS011;64513;56.258;43.980;2023-04-24T10:25:39;5.70;;;2.40;;
75866;SDS011;64513;56.258;43.980;2023-04-24T10:28:05;5.80;;;2.37;;
75866;SDS011;64513;56.258;43.980;2023-04-24T10:30:30;7.42;;;2.65;;
75866;SDS011;64513;56.258;43.980;2023-04-24T10:32:56;9.23;;;2.42;;
75866;SDS011;64513;56.258;43.980;2023-04-24T10:35:20;6.17;;;2.22;;
75866;SDS011;64513;56.258;43.980;2023-04-24T10:37:48;5.45;;;2.12;;
75866;SDS011;64513;56.258;43.980;2023-04-24T10:42:59;12.93;;;2.42;;
75866;SDS011;64513;56.258;43.980;2023-04-24T10:45:27;7.20;;;2.27;;
75866;SDS011;64513;56.258;43.980;2023-04-24T10:53:22;9.33;;;2.20;;
75866;SDS011;64513;56.258;43.980;2023-04-24T10:55:49;6.87;;;2.20;;
75866;SDS011;64513;56.258;43.980;2023-04-24T10:58:14;5.55;;;1.92;;
75866;SDS011;64513;56.258;43.980;2023-04-24T11:00:39;9.53;;;2.02;;
75866;SDS011;64513;56.258;43.980;2023-04-24T11:03:06;4.70;;;2.00;;
75866;SDS011;64513;56.258;43.980;2023-04-24T11:11:22;5.83;;;1.90;;
75866;SDS011;64513;56.258;43.980;2023-04-24T11:16:34;4.70;;;2.12;;
75866;SDS011;64513;56.258;43.980;2023-04-24T11:27:19;8.13;;;2.00;;
75866;SDS011;64513;56.258;43.980;2023-04-24T11:37:44;4.83;;;1.60;;
75866;SDS011;64513;56.258;43.980;2023-04-24T11:40:10;6.43;;;2.30;;
75866;SDS011;64513;56.258;43.980;2023-04-24T11:42:56;5.03;;;1.80;;
75866;SDS011;64513;56.258;43.980;2023-04-24T11:48:07;5.08;;;2.30;;
75866;SDS011;64513;56.258;43.980;2023-04-24T11:50:31;4.67;;;2.02;;
75866;SDS011;64513;56.258;43.980;2023-04-24T11:52:55;5.00;;;2.15;;
75866;SDS011;64513;56.258;43.980;2023-04-24T11:57:48;5.00;;;2.12;;
75866;SDS011;64513;56.258;43.980;2023-04-24T12:05:43;7.62;;;2.05;;
75866;SDS011;64513;56.258;43.980;2023-04-24T12:08:07;6.08;;;2.15;;
75866;SDS011;64513;56.258;43.980;2023-04-24T12:10:32;5.55;;;2.27;;
75866;SDS011;64513;56.258;43.980;2023-04-24T12:12:57;3.72;;;1.72;;
75866;SDS011;64513;56.258;43.980;2023-04-24T12:15:22;6.08;;;2.00;;
75866;SDS011;64513;56.258;43.980;2023-04-24T12:17:47;6.55;;;2.30;;
75866;SDS011;64513;56.258;43.980;2023-04-24T12:20:13;7.22;;;2.22;;
75866;SDS011;64513;56.258;43.980;2023-04-24T12:25:25;8.00;;;2.10;;
75866;SDS011;64513;56.258;43.980;2023-04-24T12:28:10;4.30;;;2.27;;
75866;SDS011;64513;56.258;43.980;2023-04-24T12:30:38;4.22;;;2.10;;
75866;SDS011;64513;56.258;43.980;2023-04-24T12:33:21;6.65;;;2.35;;
75866;SDS011;64513;56.258;43.980;2023-04-24T12:35:45;6.92;;;2.80;;
75866;SDS011;64513;56.258;43.980;2023-04-24T12:38:11;5.92;;;2.20;;
75866;SDS011;64513;56.258;43.980;2023-04-24T12:40:36;5.95;;;2.47;;
75866;SDS011;64513;56.258;43.980;2023-04-24T12:43:02;4.78;;;2.30;;
75866;SDS011;64513;56.258;43.980;2023-04-24T12:45:27;4.20;;;2.45;;
75866;SDS011;64513;56.258;43.980;2023-04-24T12:47:52;7.67;;;2.57;;
75866;SDS011;64513;56.258;43.980;2023-04-24T12:50:16;5.80;;;2.20;;
75866;SDS011;64513;56.258;43.980;2023-04-24T12:52:41;7.85;;;2.40;;
75866;SDS011;64513;56.258;43.980;2023-04-24T12:55:06;5.72;;;2.30;;
75866;SDS011;64513;56.258;43.980;2023-04-24T12:57:32;4.03;;;1.80;;
75866;SDS011;64513;56.258;43.980;2023-04-24T12:59:57;5.50;;;2.27;;
75866;SDS011;64513;56.258;43.980;2023-04-24T13:02:22;4.95;;;2.10;;
75866;SDS011;64513;56.258;43.980;2023-04-24T13:04:48;7.03;;;1.87;;
75866;SDS011;64513;56.258;43.980;2023-04-24T13:07:13;7.77;;;2.47;;
75866;SDS011;64513;56.258;43.980;2023-04-24T13:09:37;5.63;;;1.93;;
75866;SDS011;64513;56.258;43.980;2023-04-24T13:12:02;8.55;;;2.30;;
75866;SDS011;64513;56.258;43.980;2023-04-24T13:14:26;3.58;;;1.82;;
75866;SDS011;64513;56.258;43.980;2023-04-24T13:16:51;5.17;;;2.12;;
75866;SDS011;64513;56.258;43.980;2023-04-24T13:19:15;9.90;;;2.40;;
75866;SDS011;64513;56.258;43.980;2023-04-24T13:21:39;4.42;;;1.82;;
75866;SDS011;64513;56.258;43.980;2023-04-24T13:24:03;5.80;;;1.82;;
75866;SDS011;64513;56.258;43.980;2023-04-24T13:26:29;4.15;;;1.75;;
75866;SDS011;64513;56.258;43.980;2023-04-24T13:28:53;4.37;;;2.17;;
75866;SDS011;64513;56.258;43.980;2023-04-24T13:31:17;6.75;;;2.20;;
75866;SDS011;64513;56.258;43.980;2023-04-24T13:33:42;4.42;;;2.10;;
75866;SDS011;64513;56.258;43.980;2023-04-24T13:36:06;5.17;;;2.30;;
75866;SDS011;64513;56.258;43.980;2023-04-24T13:38:32;6.97;;;2.30;;
75866;SDS011;64513;56.258;43.980;2023-04-24T13:40:56;4.67;;;2.20;;
75866;SDS011;64513;56.258;43.980;2023-04-24T13:43:20;4.53;;;2.22;;
75866;SDS011;64513;56.258;43.980;2023-04-24T13:45:45;6.93;;;2.07;;
75866;SDS011;64513;56.258;43.980;2023-04-24T13:48:09;4.40;;;1.93;;
75866;SDS011;64513;56.258;43.980;2023-04-24T13:50:34;5.83;;;1.98;;
75866;SDS011;64513;56.258;43.980;2023-04-24T13:52:59;5.03;;;2.10;;
75866;SDS011;64513;56.258;43.980;2023-04-24T13:55:23;6.70;;;2.30;;
75866;SDS011;64513;56.258;43.980;2023-04-24T13:57:47;4.17;;;1.82;;
75866;SDS011;64513;56.258;43.980;2023-04-24T14:00:14;6.25;;;2.00;;
75866;SDS011;64513;56.258;43.980;2023-04-24T14:02:39;4.40;;;2.00;;
75866;SDS011;64513;56.258;43.980;2023-04-24T14:05:04;4.45;;;1.65;;
75866;SDS011;64513;56.258;43.980;2023-04-24T14:07:28;4.40;;;1.80;;
75866;SDS011;64513;56.258;43.980;2023-04-24T14:09:52;4.60;;;1.90;;
75866;SDS011;64513;56.258;43.980;2023-04-24T14:12:17;6.60;;;1.80;;
75866;SDS011;64513;56.258;43.980;2023-04-24T14:14:41;6.20;;;2.00;;
75866;SDS011;64513;56.258;43.980;2023-04-24T14:17:06;6.25;;;1.90;;
75866;SDS011;64513;56.258;43.980;2023-04-24T14:19:30;4.12;;;1.80;;
75866;SDS011;64513;56.258;43.980;2023-04-24T14:21:55;5.17;;;1.87;;
75866;SDS011;64513;56.258;43.980;2023-04-24T14:24:19;8.33;;;2.40;;
75866;SDS011;64513;56.258;43.980;2023-04-24T14:26:43;6.87;;;2.20;;
75866;SDS011;64513;56.258;43.980;2023-04-24T14:29:07;5.85;;;1.90;;
75866;SDS011;64513;56.258;43.980;2023-04-24T14:31:31;5.22;;;1.95;;
75866;SDS011;64513;56.258;43.980;2023-04-24T14:33:55;7.08;;;2.10;;
75866;SDS011;64513;56.258;43.980;2023-04-24T14:36:19;5.33;;;2.00;;
75866;SDS011;64513;56.258;43.980;2023-04-24T14:38:44;6.53;;;2.20;;
75866;SDS011;64513;56.258;43.980;2023-04-24T14:41:08;5.97;;;2.20;;
75866;SDS011;64513;56.258;43.980;2023-04-24T14:43:32;4.50;;;1.65;;
75866;SDS011;64513;56.258;43.980;2023-04-24T14:45:56;3.90;;;1.60;;
75866;SDS011;64513;56.258;43.980;2023-04-24T14:48:20;5.07;;;1.90;;
75866;SDS011;64513;56.258;43.980;2023-04-24T14:50:45;6.12;;;2.00;;
75866;SDS011;64513;56.258;43.980;2023-04-24T14:53:09;8.10;;;1.95;;
75866;SDS011;64513;56.258;43.980;2023-04-24T14:55:34;4.80;;;2.08;;
75866;SDS011;64513;56.258;43.980;2023-04-24T14:57:58;6.70;;;2.05;;
75866;SDS011;64513;56.258;43.980;2023-04-24T15:00:22;7.87;;;1.90;;
75866;SDS011;64513;56.258;43.980;2023-04-24T15:02:46;5.35;;;2.10;;
75866;SDS011;64513;56.258;43.980;2023-04-24T15:05:11;5.58;;;2.00;;
75866;SDS011;64513;56.258;43.980;2023-04-24T15:07:35;6.93;;;2.10;;
75866;SDS011;64513;56.258;43.980;2023-04-24T15:10:02;4.27;;;1.83;;
75866;SDS011;64513;56.258;43.980;2023-04-24T15:12:27;7.90;;;1.70;;
75866;SDS011;64513;56.258;43.980;2023-04-24T15:14:52;4.28;;;1.98;;